createdAt,value
2017-07-18T00:00:02.516Z,0
2017-07-18T00:05:02.800Z,0
2017-07-18T00:10:03.444Z,0
2017-07-18T00:15:02.832Z,0
2017-07-18T00:20:02.499Z,0
2017-07-18T00:25:03.046Z,0
2017-07-18T00:30:02.668Z,0
2017-07-18T00:35:03.247Z,0
2017-07-18T00:40:02.574Z,0
2017-07-18T00:45:03.174Z,0
2017-07-18T00:50:02.536Z,0
2017-07-18T00:55:03.298Z,0
2017-07-18T01:00:02.570Z,0
2017-07-18T01:05:03.012Z,0
2017-07-18T01:10:02.685Z,0
2017-07-18T01:15:03.336Z,0
2017-07-18T01:20:02.715Z,0
2017-07-18T01:25:03.479Z,0
2017-07-18T01:30:02.977Z,0
2017-07-18T01:35:02.364Z,0
2017-07-18T01:40:02.998Z,0
2017-07-18T01:45:03.386Z,0
2017-07-18T01:50:02.849Z,0
2017-07-18T01:55:02.397Z,0
2017-07-18T02:00:02.885Z,0
2017-07-18T02:05:02.637Z,0
2017-07-18T02:10:03.185Z,0
2017-07-18T02:15:02.513Z,0
2017-07-18T02:20:02.860Z,0
2017-07-18T02:25:03.464Z,0
2017-07-18T02:30:02.790Z,0
2017-07-18T02:35:02.567Z,0
2017-07-18T02:40:03.086Z,0
2017-07-18T02:45:02.704Z,0
2017-07-18T02:50:03.267Z,0
2017-07-18T02:55:02.655Z,1
2017-07-18T03:00:03.110Z,2
2017-07-18T03:05:02.660Z,5
2017-07-18T03:10:03.337Z,10
2017-07-18T03:15:02.842Z,19
2017-07-18T03:20:03.429Z,25
2017-07-18T03:25:02.676Z,37
2017-07-18T03:30:03.122Z,50
2017-07-18T03:35:02.739Z,98
2017-07-18T03:40:03.234Z,126
2017-07-18T03:45:02.640Z,201
2017-07-18T03:50:03.015Z,291
2017-07-18T03:55:02.522Z,362
2017-07-18T04:00:02.836Z,439
2017-07-18T04:05:03.285Z,569
2017-07-18T04:10:02.646Z,664
2017-07-18T04:15:03.117Z,796
2017-07-18T04:20:02.443Z,899
2017-07-18T04:25:02.964Z,1000
2017-07-18T04:30:02.483Z,1000
2017-07-18T04:35:03.002Z,1000
2017-07-18T04:40:02.486Z,2000
2017-07-18T04:45:02.955Z,2000
2017-07-18T04:50:02.433Z,2000
2017-07-18T04:55:03.001Z,2000
2017-07-18T05:00:02.397Z,2000
2017-07-18T05:05:02.791Z,2000
2017-07-18T05:10:03.317Z,2000
2017-07-18T05:15:02.589Z,2000
2017-07-18T05:20:03.148Z,1000
2017-07-18T05:25:02.730Z,2000
2017-07-18T05:30:02.983Z,2000
2017-07-18T05:35:03.317Z,3000
2017-07-18T05:40:02.840Z,4000
2017-07-18T05:45:02.441Z,5000
2017-07-18T05:50:02.849Z,5000
2017-07-18T05:55:03.216Z,5000
2017-07-18T06:00:02.569Z,5000
2017-07-18T06:05:02.953Z,5000
2017-07-18T06:10:03.319Z,5000
2017-07-18T06:15:02.793Z,5000
2017-07-18T06:20:03.090Z,5000
2017-07-18T06:25:02.389Z,6000
2017-07-18T06:30:02.682Z,5000
2017-07-18T06:35:03.256Z,5000
2017-07-18T06:40:02.782Z,5000
2017-07-18T06:45:03.270Z,6000
2017-07-18T06:50:02.719Z,6000
2017-07-18T06:55:03.048Z,5000
2017-07-18T07:00:02.408Z,5000
2017-07-18T07:05:02.859Z,3000
2017-07-18T07:10:03.325Z,4000
2017-07-18T07:15:02.767Z,4000
2017-07-18T07:20:03.192Z,3000
2017-07-18T07:25:02.714Z,3000
2017-07-18T07:30:03.133Z,3000
2017-07-18T07:35:02.599Z,3000
2017-07-18T07:40:03.002Z,3000
2017-07-18T07:45:02.366Z,3000
2017-07-18T07:50:02.823Z,3000
2017-07-18T07:55:03.089Z,3000
2017-07-18T08:00:02.503Z,4000
2017-07-18T08:05:02.842Z,25000
2017-07-18T08:10:02.322Z,38000
2017-07-18T08:15:02.772Z,41000
2017-07-18T08:20:02.338Z,43000
2017-07-18T08:25:02.811Z,44000
2017-07-18T08:30:03.157Z,46000
2017-07-18T08:35:02.783Z,47000
2017-07-18T08:40:03.106Z,49000
2017-07-18T08:45:02.545Z,49000
2017-07-18T08:50:02.857Z,50000
2017-07-18T08:55:03.237Z,51000
2017-07-18T09:00:02.575Z,51000
2017-07-18T09:05:03.021Z,51000
2017-07-18T09:10:02.387Z,52000
2017-07-18T09:15:02.900Z,52000
2017-07-18T09:20:03.308Z,51000
2017-07-18T09:25:02.741Z,51000
2017-07-18T09:30:03.178Z,51000
2017-07-18T09:35:02.610Z,51000
2017-07-18T09:40:03.119Z,51000
2017-07-18T09:45:02.454Z,52000
2017-07-18T09:50:02.925Z,51000
2017-07-18T09:55:02.413Z,51000
2017-07-18T10:00:02.674Z,51000
2017-07-18T10:05:03.037Z,51000
2017-07-18T10:10:02.411Z,51000
2017-07-18T10:15:02.827Z,51000
2017-07-18T10:20:03.186Z,51000
2017-07-18T10:25:02.762Z,51000
2017-07-18T10:30:03.217Z,51000
2017-07-18T10:35:02.633Z,50000
2017-07-18T10:40:02.996Z,50000
2017-07-18T10:45:03.281Z,49000
2017-07-18T10:50:02.739Z,50000
2017-07-18T10:55:03.091Z,50000
2017-07-18T11:00:02.546Z,49000
2017-07-18T11:05:03.130Z,49000
2017-07-18T11:10:02.591Z,46000
2017-07-18T11:15:03.016Z,50000
2017-07-18T11:20:02.422Z,50000
2017-07-18T11:25:02.753Z,50000
2017-07-18T11:30:03.032Z,45000
2017-07-18T11:35:02.343Z,50000
2017-07-18T11:40:02.873Z,49000
2017-07-18T11:45:02.340Z,49000
2017-07-18T11:50:02.694Z,49000
2017-07-18T11:55:03.170Z,49000
2017-07-18T12:00:02.664Z,48000
2017-07-18T12:05:02.983Z,48000
2017-07-18T12:10:02.359Z,47000
2017-07-18T12:15:02.705Z,47000
2017-07-18T12:20:03.068Z,46000
2017-07-18T12:25:02.519Z,47000
2017-07-18T12:30:02.831Z,44000
2017-07-18T12:35:03.422Z,44000
2017-07-18T12:40:02.778Z,44000
2017-07-18T12:45:03.163Z,43000
2017-07-18T12:50:02.567Z,42000
2017-07-18T12:55:03.048Z,42000
2017-07-18T13:00:02.476Z,41000
2017-07-18T13:05:02.917Z,40000
2017-07-18T13:10:02.431Z,40000
2017-07-18T13:15:02.877Z,39000
2017-07-18T13:20:02.437Z,39000
2017-07-18T13:25:02.755Z,38000
2017-07-18T13:30:03.249Z,37000
2017-07-18T13:35:02.696Z,37000
2017-07-18T13:40:03.232Z,38000
2017-07-18T13:45:02.551Z,38000
2017-07-18T13:50:03.080Z,31000
2017-07-18T13:55:02.464Z,30000
2017-07-18T14:00:02.853Z,29000
2017-07-18T14:05:03.123Z,30000
2017-07-18T14:10:02.546Z,18000
2017-07-18T14:15:03.016Z,38000
2017-07-18T14:20:02.528Z,32000
2017-07-18T14:25:02.994Z,31000
2017-07-18T14:30:03.277Z,30000
2017-07-18T14:35:02.586Z,30000
2017-07-18T14:40:02.967Z,16000
2017-07-18T14:45:02.449Z,6000
2017-07-18T14:50:02.939Z,6000
2017-07-18T14:55:03.232Z,6000
2017-07-18T15:00:02.587Z,30000
2017-07-18T15:05:02.952Z,30000
2017-07-18T15:10:02.807Z,30000
2017-07-18T15:15:03.264Z,30000
2017-07-18T15:20:02.595Z,12000
2017-07-18T15:25:03.009Z,15000
2017-07-18T15:30:02.337Z,29000
2017-07-18T15:35:02.692Z,26000
2017-07-18T15:40:03.191Z,24000
2017-07-18T15:45:02.639Z,23000
2017-07-18T15:50:02.999Z,22000
2017-07-18T15:55:02.444Z,22000
2017-07-18T16:00:02.813Z,15000
2017-07-18T16:05:02.326Z,16000
2017-07-18T16:10:02.651Z,11000
2017-07-18T16:15:03.149Z,11000
2017-07-18T16:20:02.574Z,17000
2017-07-18T16:25:02.893Z,17000
2017-07-18T16:30:03.240Z,16000
2017-07-18T16:35:02.580Z,15000
2017-07-18T16:40:02.922Z,14000
2017-07-18T16:45:03.212Z,14000
2017-07-18T16:50:02.504Z,14000
2017-07-18T16:55:02.905Z,13000
2017-07-18T17:00:02.445Z,13000
2017-07-18T17:05:02.816Z,13000
2017-07-18T17:10:03.332Z,4000
2017-07-18T17:15:02.612Z,4000
2017-07-18T17:20:02.970Z,4000
2017-07-18T17:25:03.260Z,4000
2017-07-18T17:30:02.757Z,10000
2017-07-18T17:35:03.089Z,10000
2017-07-18T17:40:02.471Z,10000
2017-07-18T17:45:02.810Z,9000
2017-07-18T17:50:03.154Z,8000
2017-07-18T17:55:02.580Z,8000
2017-07-18T18:00:03.033Z,6000
2017-07-18T18:05:02.344Z,7000
2017-07-18T18:10:02.819Z,6000
2017-07-18T18:15:03.090Z,6000
2017-07-18T18:20:02.431Z,6000
2017-07-18T18:25:02.697Z,5000
2017-07-18T18:30:02.976Z,5000
2017-07-18T18:35:02.505Z,3000
2017-07-18T18:40:02.814Z,3000
2017-07-18T18:45:03.200Z,2000
2017-07-18T18:50:02.723Z,996
2017-07-18T18:55:03.015Z,870
2017-07-18T19:00:03.319Z,611
2017-07-18T19:05:02.604Z,517
2017-07-18T19:10:02.994Z,536
2017-07-18T19:15:02.443Z,457
2017-07-18T19:20:02.780Z,416
2017-07-18T19:25:03.069Z,377
2017-07-18T19:30:02.398Z,260
2017-07-18T19:35:02.900Z,131
2017-07-18T19:40:03.267Z,80
2017-07-18T19:45:02.675Z,65
2017-07-18T19:50:03.156Z,55
2017-07-18T19:55:02.433Z,45
2017-07-18T20:00:02.769Z,39
2017-07-18T20:05:03.315Z,31
2017-07-18T20:10:02.838Z,20
2017-07-18T20:15:03.145Z,9
2017-07-18T20:20:02.433Z,4
2017-07-18T20:25:02.761Z,2
2017-07-18T20:30:03.310Z,1
2017-07-18T20:35:02.775Z,0
2017-07-18T20:40:03.249Z,0
2017-07-18T20:45:02.761Z,0
2017-07-18T20:50:03.060Z,0
2017-07-18T20:55:02.428Z,0
2017-07-18T21:00:02.752Z,0
2017-07-18T21:05:03.193Z,0
2017-07-18T21:10:02.628Z,0
2017-07-18T21:15:03.121Z,0
2017-07-18T21:20:02.564Z,0
2017-07-18T21:25:03.120Z,0
2017-07-18T21:30:02.442Z,0
2017-07-18T21:35:02.753Z,0
2017-07-18T21:40:03.267Z,0
2017-07-18T21:45:02.594Z,0
2017-07-18T21:50:03.062Z,0
2017-07-18T21:55:02.603Z,0
2017-07-18T22:00:03.021Z,0
2017-07-18T22:05:02.528Z,0
2017-07-18T22:10:03.043Z,0
2017-07-18T22:15:02.454Z,0
2017-07-18T22:20:03.184Z,0
2017-07-18T22:25:02.554Z,0
2017-07-18T22:30:02.893Z,0
2017-07-18T22:35:02.349Z,0
2017-07-18T22:40:02.841Z,0
2017-07-18T22:45:03.103Z,0
2017-07-18T22:50:02.583Z,0
2017-07-18T22:55:02.919Z,0
2017-07-18T23:00:03.481Z,0
2017-07-18T23:05:03.284Z,0
2017-07-18T23:10:02.688Z,0
2017-07-18T23:15:03.000Z,0
2017-07-18T23:20:02.511Z,0
2017-07-18T23:25:02.970Z,0
2017-07-18T23:30:02.407Z,0
2017-07-18T23:35:02.773Z,0
2017-07-18T23:40:03.213Z,0
2017-07-18T23:45:02.539Z,0
2017-07-18T23:50:03.222Z,0
2017-07-18T23:55:02.676Z,0
